Time;durP1;ratioP1;P1;durP2;ratioP2;P2;SDS_P1;SDS_P2;PMS_P1;PMS_P2;Temp;Humidity;BMP_temperature;BMP_pressure;BME280_temperature;BME280_humidity;BME280_pressure;Samples;Min_cycle;Max_cycle;Signal;HPM_P1;HPM_P2
2021/07/12 00:04:56;;;;;;;7.22;4.47;;;;;;;15.23;66.65;99762.78;10362647;28;20480;-60
2021/07/12 00:09:58;;;;;;;33.35;6.03;;;;;;;15.29;66.39;99751.75;10362195;28;20068;-60
2021/07/12 00:15:00;;;;;;;259.65;12.85;;;;;;;15.25;66.43;99750.34;10401686;28;20077;-60
2021/07/12 00:20:05;;;;;;;868.80;34.97;;;;;;;14.90;66.07;99747.09;10370492;28;20062;-60
2021/07/12 00:25:09;;;;;;;13.40;5.93;;;;;;;14.68;66.92;99740.06;10369393;28;20068;-60
2021/07/12 00:30:14;;;;;;;10.60;6.43;;;;;;;14.83;66.69;99744.13;10369185;28;20133;-60
2021/07/12 00:35:17;;;;;;;16.35;6.47;;;;;;;14.98;66.56;99728.88;10369877;28;20405;-60
2021/07/12 00:40:20;;;;;;;8.00;6.20;;;;;;;15.03;66.45;99726.69;10368562;28;20129;-60
2021/07/12 00:45:26;;;;;;;36.60;8.30;;;;;;;15.06;66.30;99729.91;10368092;28;20125;-60
2021/07/12 00:50:31;;;;;;;247.82;13.57;;;;;;;15.06;66.64;99713.31;10369095;28;20050;-60
2021/07/12 00:55:35;;;;;;;198.55;12.20;;;;;;;14.96;66.32;99699.22;10366820;28;20048;-60
2021/07/12 01:00:39;;;;;;;88.55;7.35;;;;;;;14.84;66.87;99700.22;10368520;28;20052;-60
2021/07/12 01:05:43;;;;;;;204.35;10.30;;;;;;;14.92;66.82;99703.06;10367650;28;20054;-60
2021/07/12 01:10:53;;;;;;;452.38;15.02;;;;;;;14.90;66.54;99695.25;10367387;28;20607;-60
2021/07/12 01:16:26;;;;;;;345.20;9.30;;;;;;;14.41;66.65;99690.44;10367650;28;20545;-60
2021/07/12 01:21:52;;;;;;;22.67;5.78;;;;;;;14.40;67.62;99694.03;10366622;28;20054;-60
2021/07/12 01:27:27;;;;;;;88.07;6.18;;;;;;;14.43;67.54;99699.03;10366176;28;20046;-60
2021/07/12 01:32:53;;;;;;;17.25;5.13;;;;;;;14.67;67.24;99701.56;10367561;28;20179;-60
2021/07/12 01:38:30;;;;;;;311.15;15.88;;;;;;;14.65;66.71;99694.75;10367163;28;20676;-60
2021/07/12 01:44:03;;;;;;;224.00;12.93;;;;;;;14.56;67.39;99697.16;10353329;28;20054;-60
2021/07/12 01:49:12;;;;;;;10.40;4.82;;;;;;;14.81;67.24;99692.53;10364232;28;20476;-60
2021/07/12 01:54:29;;;;;;;110.22;9.07;;;;;;;14.76;67.09;99684.19;10365203;28;20086;-60
2021/07/12 02:00:11;;;;;;;8.80;5.53;;;;;;;14.82;66.93;99679.25;10366111;28;20129;-60
2021/07/12 02:05:26;;;;;;;23.95;6.10;;;;;;;15.06;66.62;99679.06;10372193;28;20141;-59
2021/07/12 02:10:30;;;;;;;14.25;5.30;;;;;;;15.10;66.58;99677.84;10372949;28;20096;-60
2021/07/12 02:15:34;;;;;;;12.43;6.50;;;;;;;15.25;66.60;99677.41;10372692;28;20133;-60
2021/07/12 02:20:38;;;;;;;52.33;7.68;;;;;;;15.38;66.44;99671.97;10372448;28;20060;-60
2021/07/12 02:25:41;;;;;;;63.05;8.40;;;;;;;15.47;66.13;99670.34;10387223;28;20129;-60
2021/07/12 02:30:44;;;;;;;54.33;10.27;;;;;;;15.55;65.95;99675.84;10372272;28;20133;-60
2021/07/12 02:35:47;;;;;;;108.38;10.68;;;;;;;15.53;65.96;99664.59;10371224;28;20228;-60
2021/07/12 02:40:50;;;;;;;195.63;14.98;;;;;;;15.44;66.32;99666.16;10386606;28;20493;-60
2021/07/12 02:45:53;;;;;;;146.93;15.23;;;;;;;15.44;66.53;99650.34;10371541;28;20140;-60
2021/07/12 02:50:56;;;;;;;62.75;9.70;;;;;;;15.39;66.96;99649.91;10371820;28;20042;-60
2021/07/12 02:55:58;;;;;;;64.32;11.13;;;;;;;15.46;66.97;99647.59;10370800;28;20077;-60
2021/07/12 03:01:00;;;;;;;52.83;11.07;;;;;;;15.47;67.13;99650.09;10371128;28;20052;-60
2021/07/12 03:06:09;;;;;;;412.02;21.15;;;;;;;15.38;67.73;99642.97;10365276;28;20053;-60
2021/07/12 03:11:15;;;;;;;637.55;34.40;;;;;;;15.22;68.25;99629.41;10379441;28;20076;-60
2021/07/12 03:16:17;;;;;;;102.25;12.52;;;;;;;15.47;67.83;99634.28;10363963;28;20145;-60
2021/07/12 03:21:23;;;;;;;301.70;20.80;;;;;;;15.63;67.44;99632.06;10378453;28;20050;-60
2021/07/12 03:26:28;;;;;;;316.60;17.88;;;;;;;15.69;67.80;99631.53;10362761;28;20053;-60
2021/07/12 03:31:30;;;;;;;384.15;20.25;;;;;;;15.37;68.11;99630.75;10363120;28;20104;-60
2021/07/12 03:36:33;;;;;;;437.67;24.40;;;;;;;15.40;68.42;99638.41;10362857;28;20053;-60
2021/07/12 03:41:37;;;;;;;301.70;21.88;;;;;;;15.46;67.90;99637.03;10363096;28;20092;-60
2021/07/12 03:46:43;;;;;;;80.18;12.70;;;;;;;15.61;68.23;99631.38;10367090;28;20455;-60
2021/07/12 03:51:47;;;;;;;302.58;29.13;;;;;;;15.65;67.76;99630.13;10371154;28;20077;-60
2021/07/12 03:56:49;;;;;;;302.63;31.13;;;;;;;15.38;67.82;99619.25;10370582;28;20108;-60
2021/07/12 04:01:51;;;;;;;175.40;16.13;;;;;;;15.20;68.46;99602.38;10370481;28;20093;-60
2021/07/12 04:06:52;;;;;;;301.10;26.08;;;;;;;15.19;68.86;99592.78;10370421;28;20689;-60
2021/07/12 04:11:56;;;;;;;358.58;30.55;;;;;;;15.15;68.27;99583.47;10370169;28;20133;-60
2021/07/12 04:16:57;;;;;;;353.88;24.17;;;;;;;15.13;68.80;99598.56;10369755;28;20144;-60
2021/07/12 04:21:59;;;;;;;334.55;18.90;;;;;;;15.10;68.63;99594.38;10370178;28;20042;-60
2021/07/12 04:27:02;;;;;;;262.63;24.85;;;;;;;15.18;68.62;99591.13;10369407;28;20133;-60
2021/07/12 04:32:04;;;;;;;342.80;22.63;;;;;;;15.18;68.57;99596.38;10369048;28;20058;-60
2021/07/12 04:37:06;;;;;;;405.67;25.40;;;;;;;15.05;69.04;99603.63;10368243;28;20112;-60
2021/07/12 04:42:08;;;;;;;319.83;20.08;;;;;;;15.13;68.95;99606.47;10369196;28;20553;-59
2021/07/12 04:47:10;;;;;;;338.50;23.00;;;;;;;15.21;68.78;99604.00;10369020;28;20050;-60
2021/07/12 04:52:11;;;;;;;284.17;14.90;;;;;;;15.26;68.57;99596.56;10368722;28;20060;-60
2021/07/12 04:57:13;;;;;;;284.13;16.08;;;;;;;15.34;68.35;99580.97;10367953;28;20308;-60
2021/07/12 05:02:15;;;;;;;264.27;21.92;;;;;;;15.27;68.51;99585.06;10367831;28;20125;-60
2021/07/12 05:07:16;;;;;;;360.92;26.40;;;;;;;15.48;68.00;99591.16;10368164;28;20509;-60
2021/07/12 05:12:19;;;;;;;317.25;17.05;;;;;;;15.44;67.83;99584.47;10366675;28;20463;-60
2021/07/12 05:17:21;;;;;;;430.27;21.20;;;;;;;15.35;68.07;99580.81;10368083;28;20049;-60
2021/07/12 05:22:25;;;;;;;206.65;13.68;;;;;;;15.38;67.90;99575.31;10366341;28;20495;-60
2021/07/12 05:27:27;;;;;;;385.55;18.92;;;;;;;15.68;67.61;99569.22;10367144;28;20072;-59
2021/07/12 05:32:29;;;;;;;462.10;19.98;;;;;;;15.62;67.58;99585.56;10366523;28;20138;-60
2021/07/12 05:37:30;;;;;;;208.32;15.52;;;;;;;15.46;67.85;99573.78;10367339;28;20088;-59
2021/07/12 05:42:32;;;;;;;114.45;16.60;;;;;;;15.79;67.49;99573.56;10367140;28;20062;-60
2021/07/12 05:47:34;;;;;;;180.57;20.20;;;;;;;16.00;66.82;99563.78;10366665;28;20126;-60
2021/07/12 05:52:36;;;;;;;248.15;19.10;;;;;;;16.09;66.27;99560.34;10366218;28;20092;-60
2021/07/12 05:57:38;;;;;;;94.55;20.85;;;;;;;15.85;67.36;99565.97;10366479;28;20121;-60
2021/07/12 06:02:40;;;;;;;45.08;13.55;;;;;;;16.05;66.58;99561.56;10365358;28;20148;-60
2021/07/12 06:07:44;;;;;;;54.20;18.30;;;;;;;16.21;66.36;99565.38;10365004;28;20080;-60
2021/07/12 06:12:46;;;;;;;45.22;13.63;;;;;;;16.20;66.14;99565.50;10365057;28;20054;-61
2021/07/12 06:17:47;;;;;;;62.00;21.52;;;;;;;16.07;66.34;99563.13;10365583;28;20045;-60
2021/07/12 06:22:50;;;;;;;28.55;14.48;;;;;;;15.94;66.58;99553.75;10365317;28;20042;-59
2021/07/12 06:27:56;;;;;;;19.88;14.73;;;;;;;16.01;66.85;99568.09;10365318;28;20065;-60
2021/07/12 06:32:58;;;;;;;49.55;14.45;;;;;;;16.16;66.21;99561.47;10364374;28;20132;-60
2021/07/12 06:37:59;;;;;;;103.68;25.38;;;;;;;15.94;66.28;99583.63;10364984;28;20125;-60
2021/07/12 06:43:01;;;;;;;16.92;11.88;;;;;;;16.08;66.83;99580.59;10365174;28;20133;-60
2021/07/12 06:48:03;;;;;;;90.10;20.33;;;;;;;16.52;65.67;99573.22;10364411;28;20507;-60
2021/07/12 06:53:05;;;;;;;30.90;17.13;;;;;;;16.64;65.65;99559.75;10363992;28;20053;-60
2021/07/12 06:58:11;;;;;;;70.45;17.55;;;;;;;16.70;64.98;99574.19;10364594;28;20113;-60
2021/07/12 07:03:12;;;;;;;23.58;15.95;;;;;;;16.77;65.05;99570.03;10363023;28;20137;-60
2021/07/12 07:08:14;;;;;;;21.05;13.02;;;;;;;16.69;65.05;99569.91;10362614;28;20467;-60
2021/07/12 07:13:16;;;;;;;24.45;13.52;;;;;;;16.70;64.82;99564.47;10363737;28;20188;-60
2021/07/12 07:18:18;;;;;;;19.40;14.38;;;;;;;16.96;64.41;99564.72;10363575;28;20064;-60
2021/07/12 07:23:19;;;;;;;16.60;13.23;;;;;;;17.66;63.08;99543.16;10363138;28;20140;-60
2021/07/12 07:28:21;;;;;;;15.80;13.32;;;;;;;18.15;61.63;99548.06;10359331;28;20077;-60
2021/07/12 07:33:26;;;;;;;16.77;13.43;;;;;;;18.29;61.29;99539.63;10376521;28;20485;-60
2021/07/12 07:38:28;;;;;;;14.63;12.88;;;;;;;18.32;61.46;99528.72;10376102;28;20053;-60
2021/07/12 07:43:30;;;;;;;14.73;12.52;;;;;;;18.85;60.41;99514.66;10365117;28;20179;-61
2021/07/12 07:48:31;;;;;;;20.58;13.02;;;;;;;19.20;59.35;99501.31;10358040;28;20054;-60
2021/07/12 07:53:35;;;;;;;11.90;10.68;;;;;;;20.13;57.44;99499.41;10366307;28;20057;-60
2021/07/12 07:58:37;;;;;;;12.25;11.02;;;;;;;19.99;57.27;99493.94;10360524;28;20498;-60
2021/07/12 08:03:38;;;;;;;11.02;9.35;;;;;;;21.49;54.44;99470.31;10358553;28;20394;-61
2021/07/12 08:08:40;;;;;;;10.68;9.40;;;;;;;22.84;51.08;99463.50;10386349;28;20047;-61
2021/07/12 08:13:42;;;;;;;11.77;9.80;;;;;;;21.98;51.54;99465.59;10358619;28;20100;-61
2021/07/12 08:18:46;;;;;;;10.40;8.43;;;;;;;22.33;51.30;99443.75;10359906;28;20073;-61
2021/07/12 08:23:48;;;;;;;9.07;8.18;;;;;;;22.03;52.11;99436.56;10360688;28;20406;-61
2021/07/12 08:28:49;;;;;;;8.77;7.88;;;;;;;22.94;50.14;99426.72;10358631;28;20552;-61
2021/07/12 08:33:54;;;;;;;8.60;6.88;;;;;;;24.11;48.19;99409.56;10363699;28;20108;-61
2021/07/12 08:38:55;;;;;;;8.77;7.50;;;;;;;24.89;46.32;99400.56;10363800;28;20054;-61
2021/07/12 08:43:57;;;;;;;7.50;6.60;;;;;;;24.43;46.57;99405.53;10366610;28;20096;-61
2021/07/12 08:48:59;;;;;;;10.10;6.47;;;;;;;23.80;48.27;99379.63;10374583;28;20077;-61
2021/07/12 08:54:01;;;;;;;7.93;6.45;;;;;;;23.95;48.07;99380.41;10384872;28;20104;-61
2021/07/12 08:59:42;;;;;;;9.88;7.45;;;;;;;23.44;47.95;99387.63;10366760;28;20426;-62
2021/07/12 09:04:46;;;;;;;8.13;5.97;;;;;;;23.34;48.83;99375.56;10333530;28;20703;-62
2021/07/12 09:10:06;;;;;;;11.57;5.78;;;;;;;24.65;47.61;99360.88;10349773;28;20498;-62
2021/07/12 09:15:10;;;;;;;6.50;5.68;;;;;;;25.49;45.07;99365.09;10367217;28;20045;-62
2021/07/12 09:20:29;;;;;;;7.55;5.03;;;;;;;25.70;44.54;99357.72;10367363;28;20041;-62
2021/07/12 09:25:32;;;;;;;11.20;4.72;;;;;;;25.93;44.84;99352.00;10366142;28;20088;-62
2021/07/12 09:30:34;;;;;;;6.78;4.10;;;;;;;25.58;44.48;99348.63;10363101;28;20062;-63
2021/07/12 09:35:36;;;;;;;8.02;4.22;;;;;;;26.22;44.50;99350.84;10363434;28;20554;-63
2021/07/12 09:40:38;;;;;;;5.65;4.10;;;;;;;26.52;43.24;99342.16;10368816;28;98489;-63
2021/07/12 09:45:40;;;;;;;9.48;4.40;;;;;;;26.16;43.09;99341.75;10405426;28;20148;-63
2021/07/12 09:50:49;;;;;;;10.02;4.22;;;;;;;25.58;45.03;99321.88;10402633;28;20402;-63
2021/07/12 09:55:51;;;;;;;5.57;3.80;;;;;;;24.99;45.64;99321.63;10387910;28;20120;-63
2021/07/12 10:00:52;;;;;;;5.93;4.30;;;;;;;25.14;45.60;99312.63;10350213;28;20161;-63
2021/07/12 10:05:55;;;;;;;5.63;3.75;;;;;;;24.70;46.24;99302.28;10360286;28;20096;-63
2021/07/12 10:10:57;;;;;;;4.63;3.50;;;;;;;24.38;46.88;99268.16;10363083;28;20046;-63
2021/07/12 10:16:01;;;;;;;4.47;3.30;;;;;;;23.94;47.29;99269.22;10362612;28;20387;-63
2021/07/12 10:21:03;;;;;;;6.00;3.22;;;;;;;24.05;47.99;99267.88;10360465;28;20041;-63
2021/07/12 10:26:05;;;;;;;6.40;3.85;;;;;;;24.16;47.09;99257.50;10361830;28;20068;-63
2021/07/12 10:31:21;;;;;;;4.82;3.30;;;;;;;24.51;46.47;99252.19;10360804;28;20482;-63
2021/07/12 10:37:11;;;;;;;5.72;3.20;;;;;;;24.67;46.49;99246.53;10358130;28;20046;-63
2021/07/12 10:42:41;;;;;;;6.22;2.20;;;;;;;25.36;43.73;99247.25;10360418;28;20633;-63
2021/07/12 10:47:43;;;;;;;3.15;2.20;;;;;;;25.67;42.86;99264.38;10359106;28;20089;-63
2021/07/12 10:52:45;;;;;;;3.00;1.90;;;;;;;25.31;42.08;99273.75;10359181;28;20054;-63
2021/07/12 10:57:48;;;;;;;3.30;1.85;;;;;;;25.42;41.55;99268.69;10365974;28;20129;-63
2021/07/12 11:02:51;;;;;;;4.45;2.10;;;;;;;25.85;41.57;99261.91;10346122;28;20509;-63
2021/07/12 11:07:56;;;;;;;4.20;1.80;;;;;;;26.22;40.44;99268.53;10350294;28;20042;-63
2021/07/12 11:13:02;;;;;;;3.08;2.00;;;;;;;26.49;39.43;99285.41;10349458;28;20046;-63
2021/07/12 11:18:25;;;;;;;2.00;1.60;;;;;;;26.61;39.52;99289.97;10343922;28;20049;-63
2021/07/12 11:23:50;;;;;;;3.05;1.73;;;;;;;26.55;37.77;99303.34;10361797;28;20884;-63
2021/07/12 11:29:12;;;;;;;4.82;1.75;;;;;;;26.76;38.45;99295.09;10351127;28;20104;-63
2021/07/12 11:34:39;;;;;;;4.70;1.90;;;;;;;26.73;38.66;99300.06;10362755;28;20081;-63
2021/07/12 11:39:44;;;;;;;3.58;1.80;;;;;;;26.90;37.46;99301.25;10361839;28;20076;-63
2021/07/12 11:44:59;;;;;;;4.32;1.80;;;;;;;27.13;35.31;99305.09;10362674;28;20053;-63
2021/07/12 11:50:12;;;;;;;2.83;1.60;;;;;;;27.36;36.16;99307.28;10362658;28;20081;-63
2021/07/12 11:55:26;;;;;;;5.93;1.75;;;;;;;27.20;36.71;99307.78;10356229;28;20088;-63
2021/07/12 12:00:33;;;;;;;5.53;1.80;;;;;;;27.21;37.72;99307.56;10360903;28;20225;-63
2021/07/12 12:05:38;;;;;;;4.78;1.90;;;;;;;27.21;37.21;99302.19;10354961;28;20054;-63
2021/07/12 12:10:40;;;;;;;3.25;1.73;;;;;;;27.44;36.64;99305.16;10366676;28;20046;-63
2021/07/12 12:15:53;;;;;;;2.90;1.70;;;;;;;27.65;35.88;99306.69;10358304;28;20129;-63
2021/07/12 12:20:57;;;;;;;3.08;1.70;;;;;;;27.27;36.55;99306.72;10358075;28;20049;-63
2021/07/12 12:26:10;;;;;;;3.10;1.65;;;;;;;27.26;36.37;99302.34;10365425;28;20077;-63
2021/07/12 12:31:20;;;;;;;3.03;1.70;;;;;;;27.27;36.64;99281.72;10367326;28;20050;-63
2021/07/12 12:36:24;;;;;;;3.58;1.70;;;;;;;26.75;37.03;99281.91;10366356;28;20557;-64
2021/07/12 12:41:49;;;;;;;3.17;1.67;;;;;;;26.76;38.02;99276.31;10381112;28;20050;-63
2021/07/12 12:46:55;;;;;;;3.15;1.52;;;;;;;26.75;36.37;99271.97;10373065;28;20078;-63
2021/07/12 12:52:04;;;;;;;3.60;1.90;;;;;;;26.72;36.80;99267.03;10365479;28;20042;-63
2021/07/12 12:57:07;;;;;;;2.80;1.73;;;;;;;26.70;37.52;99263.75;10363226;28;20485;-62
2021/07/12 13:02:20;;;;;;;3.72;1.83;;;;;;;26.38;37.29;99259.25;10348594;28;20129;-62
2021/07/12 13:07:29;;;;;;;3.88;1.92;;;;;;;26.05;38.83;99253.94;10351082;28;20137;-62
2021/07/12 13:12:41;;;;;;;5.07;2.05;;;;;;;26.28;39.24;99238.22;10365665;28;20520;-62
2021/07/12 13:17:43;;;;;;;3.85;1.90;;;;;;;26.47;37.19;99231.16;10356047;28;20046;-62
2021/07/12 13:22:56;;;;;;;4.32;1.80;;;;;;;26.69;37.58;99225.34;10359410;28;20052;-62
2021/07/12 13:28:05;;;;;;;3.58;1.80;;;;;;;26.62;38.71;99219.22;10379103;28;20120;-62
2021/07/12 13:33:08;;;;;;;3.42;1.77;;;;;;;26.47;38.62;99217.75;10380562;28;20045;-62
2021/07/12 13:38:12;;;;;;;3.65;2.05;;;;;;;26.27;39.29;99215.13;10370301;28;20049;-62
2021/07/12 13:43:15;;;;;;;4.97;1.90;;;;;;;25.89;41.80;99206.09;10373956;28;20133;-62
2021/07/12 13:48:17;;;;;;;3.15;2.20;;;;;;;26.05;41.47;99204.88;10363611;28;20150;-62
2021/07/12 13:53:18;;;;;;;4.55;2.92;;;;;;;26.18;41.86;99204.84;10362881;28;20459;-62
2021/07/12 13:58:22;;;;;;;3.72;2.00;;;;;;;26.30;39.78;99203.19;10371385;28;20042;-62
2021/07/12 14:03:24;;;;;;;3.47;1.90;;;;;;;26.25;40.67;99197.63;10379961;28;20278;-62
2021/07/12 14:08:27;;;;;;;5.20;2.20;;;;;;;26.16;40.70;99197.00;10367495;28;20050;-62
2021/07/12 14:13:29;;;;;;;3.60;1.98;;;;;;;26.00;41.38;99199.31;10360376;28;20093;-62
2021/07/12 14:18:31;;;;;;;3.88;2.00;;;;;;;25.99;40.96;99189.63;10373194;28;20045;-62
2021/07/12 14:23:32;;;;;;;4.72;1.90;;;;;;;25.97;41.04;99183.66;10362718;28;20058;-62
2021/07/12 14:28:34;;;;;;;5.90;2.13;;;;;;;26.12;41.43;99181.56;10361516;28;20092;-62
2021/07/12 14:33:36;;;;;;;5.13;2.15;;;;;;;26.28;39.56;99181.91;10362681;28;20076;-62
2021/07/12 14:38:38;;;;;;;5.30;1.95;;;;;;;26.49;39.66;99175.47;10361955;28;20084;-62
2021/07/12 14:43:41;;;;;;;4.55;2.33;;;;;;;26.35;40.87;99177.38;10360670;28;20045;-62
2021/07/12 14:48:43;;;;;;;4.97;2.10;;;;;;;26.39;39.97;99175.09;10362267;28;20164;-62
2021/07/12 14:53:45;;;;;;;8.13;2.28;;;;;;;26.35;42.03;99177.38;10361011;28;20161;-62
2021/07/12 14:58:47;;;;;;;3.35;1.85;;;;;;;26.51;41.83;99173.41;10358446;28;20069;-62
2021/07/12 15:03:49;;;;;;;2.75;1.85;;;;;;;26.57;41.30;99168.03;10361561;28;20763;-62
2021/07/12 15:08:50;;;;;;;3.10;2.00;;;;;;;26.40;40.30;99150.78;10354203;28;20082;-62
2021/07/12 15:13:52;;;;;;;3.58;1.95;;;;;;;26.32;41.92;99145.63;10347496;28;20042;-62
2021/07/12 15:18:56;;;;;;;3.78;1.80;;;;;;;26.39;42.30;99145.59;10359149;28;20273;-62
2021/07/12 15:23:58;;;;;;;3.45;1.80;;;;;;;26.26;42.21;99143.78;10361874;28;20168;-62
2021/07/12 15:29:00;;;;;;;2.80;1.85;;;;;;;26.47;41.39;99140.00;10359835;28;20046;-62
2021/07/12 15:34:01;;;;;;;3.38;1.85;;;;;;;26.49;41.05;99152.16;10360924;28;20437;-62
2021/07/12 15:39:03;;;;;;;7.13;1.90;;;;;;;26.59;41.04;99149.06;10361161;28;20080;-63
2021/07/12 15:44:05;;;;;;;3.33;2.00;;;;;;;26.81;40.71;99138.84;10360324;28;20045;-63
2021/07/12 15:49:06;;;;;;;4.03;2.38;;;;;;;26.95;39.82;99133.19;10360000;28;20049;-63
2021/07/12 15:54:08;;;;;;;2.80;1.77;;;;;;;26.99;40.16;99145.16;10360803;28;20088;-63
2021/07/12 15:59:10;;;;;;;5.78;1.88;;;;;;;27.04;39.44;99153.34;10360210;28;20081;-62
2021/07/12 16:04:13;;;;;;;5.63;1.90;;;;;;;26.94;41.02;99144.97;10360201;28;20479;-62
2021/07/12 16:09:14;;;;;;;6.00;1.73;;;;;;;26.66;41.48;99136.44;10359539;28;20128;-62
2021/07/12 16:14:16;;;;;;;2.97;1.88;;;;;;;26.64;40.05;99134.00;10358526;28;20391;-63
2021/07/12 16:19:18;;;;;;;5.05;2.20;;;;;;;26.93;40.40;99129.91;10360004;28;20054;-62
2021/07/12 16:24:20;;;;;;;3.67;1.88;;;;;;;26.48;40.90;99122.88;10359950;28;20050;-63
2021/07/12 16:29:24;;;;;;;3.25;1.90;;;;;;;25.90;42.07;99117.47;10338445;28;20050;-62
2021/07/12 16:34:26;;;;;;;3.92;1.80;;;;;;;25.88;42.66;99129.41;10358129;28;20153;-62
2021/07/12 16:39:28;;;;;;;3.33;1.77;;;;;;;25.80;42.99;99130.47;10359626;28;20554;-62
2021/07/12 16:44:28;;;;;;;4.38;1.75;;;;;;;25.57;44.76;99126.59;10359315;28;20128;-62
2021/07/12 16:49:30;;;;;;;3.72;2.05;;;;;;;25.53;44.80;99128.03;10359793;28;20064;-62
2021/07/12 16:54:32;;;;;;;4.55;2.00;;;;;;;25.63;43.19;99126.56;10361649;28;20153;-62
2021/07/12 16:59:34;;;;;;;3.53;2.10;;;;;;;25.94;43.22;99127.78;10366854;28;20056;-62
2021/07/12 17:04:36;;;;;;;3.35;2.00;;;;;;;25.84;43.15;99117.47;10366308;28;20049;-62
2021/07/12 17:09:38;;;;;;;7.38;2.28;;;;;;;25.68;44.24;99118.75;10365265;28;23024;-62
2021/07/12 17:14:40;;;;;;;4.20;2.53;;;;;;;25.34;43.68;99123.50;10361811;28;20049;-62
2021/07/12 17:20:04;;;;;;;3.90;2.05;;;;;;;24.96;42.76;99123.19;10378704;28;20056;-62
2021/07/12 17:25:07;;;;;;;4.88;2.50;;;;;;;24.85;44.09;99116.63;10364410;28;20042;-62
2021/07/12 17:30:09;;;;;;;4.00;2.30;;;;;;;24.81;43.57;99126.06;10356847;28;20112;-62
2021/07/12 17:35:12;;;;;;;5.93;2.45;;;;;;;25.00;43.56;99117.25;10364046;28;20496;-62
2021/07/12 17:40:15;;;;;;;3.08;2.10;;;;;;;25.14;42.78;99115.44;10364686;28;20540;-62
2021/07/12 17:45:22;;;;;;;5.57;2.58;;;;;;;25.28;43.34;99118.94;10373000;28;20469;-62
2021/07/12 17:50:23;;;;;;;4.45;2.42;;;;;;;25.00;43.86;99113.72;10364542;28;20141;-62
2021/07/12 17:55:25;;;;;;;3.88;2.30;;;;;;;24.90;43.16;99105.28;10362882;28;20368;-62
2021/07/12 18:00:27;;;;;;;4.47;2.28;;;;;;;24.79;43.50;99100.53;10363848;28;20465;-62
2021/07/12 18:05:29;;;;;;;3.90;2.05;;;;;;;24.63;43.82;99100.88;10363954;28;20509;-62
2021/07/12 18:10:30;;;;;;;3.47;2.25;;;;;;;24.57;44.13;99088.31;10363947;28;20473;-62
2021/07/12 18:15:32;;;;;;;5.43;2.25;;;;;;;24.61;44.59;99089.56;10358477;28;20245;-63
2021/07/12 18:20:34;;;;;;;7.05;2.45;;;;;;;24.50;44.81;99085.63;10363129;28;20168;-63
2021/07/12 18:25:36;;;;;;;5.75;2.28;;;;;;;24.34;44.73;99085.16;10363388;28;20069;-63
2021/07/12 18:30:40;;;;;;;6.40;2.42;;;;;;;24.32;46.07;99092.53;10367060;28;20129;-62
2021/07/12 18:35:43;;;;;;;4.43;2.38;;;;;;;24.19;46.26;99096.81;10364907;28;20537;-63
2021/07/12 18:40:45;;;;;;;3.50;2.40;;;;;;;24.05;45.70;99092.41;10365236;28;20046;-63
2021/07/12 18:45:47;;;;;;;4.63;2.42;;;;;;;23.93;46.88;99090.47;10364648;28;20124;-63
2021/07/12 18:50:48;;;;;;;4.43;2.58;;;;;;;23.85;48.06;99104.81;10363925;28;20483;-63
2021/07/12 18:55:50;;;;;;;4.18;2.30;;;;;;;23.82;48.26;99105.19;10364172;28;20053;-63
2021/07/12 19:00:52;;;;;;;6.63;2.63;;;;;;;23.76;48.36;99110.53;10378633;28;20116;-63
2021/07/12 19:05:54;;;;;;;5.03;2.70;;;;;;;23.64;48.31;99120.06;10362850;28;20125;-63
2021/07/12 19:10:56;;;;;;;5.53;2.80;;;;;;;23.57;48.45;99119.19;10363996;28;20054;-63
2021/07/12 19:15:57;;;;;;;4.97;2.70;;;;;;;23.55;49.35;99118.56;10362639;28;20124;-62
2021/07/12 19:20:59;;;;;;;5.25;3.20;;;;;;;23.44;49.40;99123.41;10363252;28;20129;-62
2021/07/12 19:26:01;;;;;;;8.32;3.80;;;;;;;23.38;50.24;99128.66;10363261;28;20050;-61
2021/07/12 19:31:04;;;;;;;4.78;2.70;;;;;;;23.22;50.48;99137.78;10362534;28;20572;-61
2021/07/12 19:36:06;;;;;;;6.65;2.80;;;;;;;23.12;50.82;99121.25;10362095;28;20145;-61
2021/07/12 19:41:08;;;;;;;6.22;2.55;;;;;;;23.10;51.06;99131.31;10363266;28;20056;-61
2021/07/12 19:46:10;;;;;;;3.78;2.30;;;;;;;23.05;51.38;99139.03;10362748;28;20081;-61
2021/07/12 19:51:12;;;;;;;4.65;2.40;;;;;;;22.99;51.15;99141.63;10362463;28;20257;-61
2021/07/12 19:56:14;;;;;;;4.20;2.10;;;;;;;22.84;50.39;99154.19;10349777;28;20140;-61
2021/07/12 20:01:16;;;;;;;4.68;2.20;;;;;;;22.80;51.21;99152.94;10366822;28;20045;-61
2021/07/12 20:06:18;;;;;;;5.28;2.55;;;;;;;22.74;51.48;99159.00;10358576;28;20173;-61
2021/07/12 20:11:20;;;;;;;4.28;2.40;;;;;;;22.73;51.38;99165.31;10356571;28;20046;-61
2021/07/12 20:16:22;;;;;;;5.95;2.42;;;;;;;22.50;51.59;99154.78;10359713;28;20056;-61
2021/07/12 20:21:24;;;;;;;3.75;2.58;;;;;;;22.39;52.12;99160.59;10338714;28;20129;-61
2021/07/12 20:26:26;;;;;;;7.93;2.70;;;;;;;22.31;52.88;99163.38;10360400;28;20490;-61
2021/07/12 20:31:28;;;;;;;5.78;2.40;;;;;;;22.29;52.95;99160.84;10366580;28;20050;-61
2021/07/12 20:36:30;;;;;;;5.32;2.72;;;;;;;22.18;52.96;99160.50;10368588;28;20100;-61
2021/07/12 20:41:32;;;;;;;4.00;2.50;;;;;;;22.00;53.50;99158.19;10367955;28;20143;-61
2021/07/12 20:46:34;;;;;;;11.85;2.80;;;;;;;22.00;53.59;99157.34;10368496;28;20049;-61
2021/07/12 20:51:37;;;;;;;6.43;2.40;;;;;;;22.10;53.76;99155.28;10368152;28;20057;-61
2021/07/12 20:56:38;;;;;;;4.60;2.70;;;;;;;21.95;53.66;99141.91;10367375;28;20050;-62
2021/07/12 21:01:40;;;;;;;6.65;2.63;;;;;;;21.81;53.41;99161.38;10367235;28;20125;-61
2021/07/12 21:06:42;;;;;;;7.05;2.75;;;;;;;21.75;53.78;99149.63;10366887;28;20583;-61
2021/07/12 21:11:44;;;;;;;4.20;2.60;;;;;;;21.67;54.18;99154.19;10367248;28;20405;-61
2021/07/12 21:16:46;;;;;;;5.40;2.90;;;;;;;21.64;54.99;99147.38;10366140;28;20490;-61
2021/07/12 21:21:48;;;;;;;7.32;2.60;;;;;;;21.66;55.00;99149.88;10366881;28;20589;-61
2021/07/12 21:26:50;;;;;;;4.05;2.80;;;;;;;21.68;55.12;99145.22;10365977;28;20136;-61
2021/07/12 21:31:52;;;;;;;5.05;2.60;;;;;;;21.57;55.03;99138.50;10365134;28;20064;-61
2021/07/12 21:36:54;;;;;;;4.50;2.80;;;;;;;21.50;55.21;99142.88;10366449;28;20419;-61
2021/07/12 21:41:56;;;;;;;5.55;2.50;;;;;;;21.41;55.18;99137.81;10365893;28;20482;-61
2021/07/12 21:46:59;;;;;;;4.60;2.60;;;;;;;21.41;55.34;99135.97;10381058;28;20070;-61
2021/07/12 21:52:01;;;;;;;6.05;2.58;;;;;;;21.41;55.42;99127.16;10365356;28;20555;-61
2021/07/12 21:57:02;;;;;;;4.88;2.55;;;;;;;21.50;55.20;99132.22;10364416;28;20399;-61
2021/07/12 22:02:04;;;;;;;7.32;3.10;;;;;;;21.60;55.55;99146.09;10365021;28;20121;-61
2021/07/12 22:07:07;;;;;;;5.70;3.28;;;;;;;21.45;57.48;99139.94;10363431;28;20052;-61
2021/07/12 22:12:09;;;;;;;12.07;3.65;;;;;;;21.03;58.25;99137.72;10364872;28;20561;-61
2021/07/12 22:17:25;;;;;;;7.03;3.60;;;;;;;20.88;60.89;99136.84;10365101;28;20155;-61
2021/07/12 22:22:29;;;;;;;8.02;3.40;;;;;;;20.98;60.46;99141.94;10364729;28;20228;-61
2021/07/12 22:27:35;;;;;;;7.60;3.97;;;;;;;20.96;61.05;99144.78;10364150;28;20080;-61
2021/07/12 22:32:37;;;;;;;9.15;4.45;;;;;;;20.93;61.95;99150.44;10365529;28;20052;-61
2021/07/12 22:37:39;;;;;;;15.25;4.07;;;;;;;20.83;61.58;99149.84;10364838;28;20562;-61
2021/07/12 22:42:41;;;;;;;8.75;4.35;;;;;;;20.71;63.28;99145.91;10363610;28;20077;-61
2021/07/12 22:47:43;;;;;;;9.00;4.55;;;;;;;20.81;62.44;99151.00;10364454;28;20056;-61
2021/07/12 22:52:45;;;;;;;9.43;4.78;;;;;;;20.56;62.39;99144.16;10363931;28;20052;-61
2021/07/12 22:57:47;;;;;;;11.82;5.35;;;;;;;20.40;62.91;99131.75;10363352;28;20564;-61
2021/07/12 23:02:50;;;;;;;6.07;5.00;;;;;;;20.37;63.30;99129.47;10364148;28;20497;-61
2021/07/12 23:07:52;;;;;;;9.98;5.70;;;;;;;20.27;64.29;99140.28;10363506;28;20446;-61
2021/07/12 23:12:54;;;;;;;8.07;5.75;;;;;;;20.37;64.51;99136.59;10363691;28;20483;-61
2021/07/12 23:17:56;;;;;;;8.13;5.13;;;;;;;20.39;64.81;99132.78;10363533;28;20152;-61
2021/07/12 23:22:58;;;;;;;6.05;4.15;;;;;;;20.20;64.32;99135.84;10363073;28;20052;-61
2021/07/12 23:28:00;;;;;;;9.80;6.63;;;;;;;20.26;65.23;99135.16;10362624;28;20137;-61